Time;durP1;ratioP1;P1;durP2;ratioP2;P2;SDS_P1;SDS_P2;PMS_P1;PMS_P2;Temp;Humidity;BMP_temperature;BMP_pressure;BME280_temperature;BME280_humidity;BME280_pressure;Samples;Min_cycle;Max_cycle;Signal;HPM_P1;HPM_P2
2023/07/25 00:30:09;;;;;;;2.42;0.80;;;;;;;14.59;100.00;99235.06;7397463;19;20370;-56
2023/07/25 00:33:52;;;;;;;;;;;;;;;;;;;;;
2023/07/25 00:36:39;;;;;;;0.40;0.40;;;;;;;17.23;100.00;99241.94;7399556;19;20017;-55
2023/07/25 00:39:06;;;;;;;0.73;0.73;;;;;;;15.65;100.00;99238.59;7394448;19;20015;-55
2023/07/25 00:41:32;;;;;;;2.78;1.52;;;;;;;16.71;100.00;99246.56;7395570;19;20007;-55
2023/07/25 00:43:58;;;;;;;4.85;1.20;;;;;;;15.76;100.00;99238.50;7394201;19;20482;-55
2023/07/25 00:46:24;;;;;;;0.13;0.13;;;;;;;15.07;100.00;99246.47;7394824;19;20019;-55
2023/07/25 00:48:51;;;;;;;0.68;0.57;;;;;;;20.40;100.00;99233.56;7396210;19;20088;-55
2023/07/25 00:51:17;;;;;;;1.20;0.90;;;;;;;19.68;100.00;99235.56;7395247;19;20014;-55
2023/07/25 00:53:43;;;;;;;0.32;0.32;;;;;;;22.98;83.74;99232.19;7394844;19;20019;-56
2023/07/25 00:56:11;;;;;;;0.32;0.28;;;;;;;14.95;100.00;99240.19;7395683;19;20023;-56
2023/07/25 00:58:38;;;;;;;0.40;0.40;;;;;;;14.79;100.00;99238.25;7396204;19;20010;-55
2023/07/25 01:01:06;;;;;;;0.47;0.47;;;;;;;15.49;100.00;99242.31;7398154;19;20018;-55
2023/07/25 01:03:35;;;;;;;0.73;0.57;;;;;;;16.09;100.00;99238.13;7396505;19;20007;-55
2023/07/25 01:06:03;;;;;;;1.33;0.85;;;;;;;17.39;100.00;99232.44;7397327;19;20006;-55
2023/07/25 01:08:30;;;;;;;0.60;0.60;;;;;;;16.56;100.00;99242.19;7396965;19;20040;-55
2023/07/25 01:10:56;;;;;;;1.15;0.63;;;;;;;14.84;100.00;99234.66;7395017;19;20099;-55
2023/07/25 01:13:25;;;;;;;1.48;0.70;;;;;;;14.78;100.00;99244.38;7395808;19;20007;-55
2023/07/25 01:15:53;;;;;;;0.80;0.80;;;;;;;14.93;100.00;99230.75;7395708;19;20074;-55
2023/07/25 01:18:20;;;;;;;6.70;0.77;;;;;;;14.87;100.00;99239.22;7395311;19;20029;-55
2023/07/25 01:20:47;;;;;;;0.82;0.82;;;;;;;14.79;100.00;99238.25;7397018;19;20048;-55
2023/07/25 01:23:34;;;;;;;0.68;0.65;;;;;;;14.78;100.00;99228.31;7394820;19;20017;-55
2023/07/25 01:26:00;;;;;;;0.20;0.20;;;;;;;16.56;100.00;99225.31;7393453;19;20112;-81
2023/07/25 01:28:27;;;;;;;0.68;0.68;;;;;;;14.75;100.00;99226.53;7391508;19;20023;-81
2023/07/25 01:30:53;;;;;;;0.40;0.40;;;;;;;14.54;100.00;99228.22;7394363;19;20014;-81
2023/07/25 01:33:19;;;;;;;0.38;0.38;;;;;;;14.45;100.00;99231.31;7394625;19;20641;-81
2023/07/25 01:35:45;;;;;;;1.00;0.70;;;;;;;14.68;100.00;99224.31;7392363;19;20493;-81
2023/07/25 01:38:11;;;;;;;0.77;0.68;;;;;;;15.75;100.00;99226.50;7389471;19;20022;-81
2023/07/25 01:40:40;;;;;;;0.65;0.65;;;;;;;15.39;100.00;99222.25;7391473;19;20021;-81
2023/07/25 01:43:06;;;;;;;0.68;0.68;;;;;;;15.74;100.00;99224.97;7394444;19;20426;-81
2023/07/25 01:45:32;;;;;;;0.75;0.40;;;;;;;14.27;100.00;99223.50;7392232;19;20050;-81
2023/07/25 01:47:59;;;;;;;0.47;0.47;;;;;;;15.72;100.00;99226.81;7392486;19;20489;-80
2023/07/25 01:50:26;;;;;;;1.77;1.35;;;;;;;14.60;100.00;99223.31;7392607;19;20082;-80
2023/07/25 01:52:53;;;;;;;1.00;0.65;;;;;;;14.54;100.00;99219.81;7393702;19;20015;-80
2023/07/25 01:55:19;;;;;;;0.60;0.60;;;;;;;18.91;100.00;99224.06;7392196;19;20018;-82
2023/07/25 01:57:45;;;;;;;0.90;0.30;;;;;;;18.99;100.00;99218.53;7390646;19;20366;-81
2023/07/25 02:00:12;;;;;;;3.20;0.90;;;;;;;18.71;100.00;99216.34;7391701;19;20022;-81
2023/07/25 02:02:41;;;;;;;0.68;0.68;;;;;;;17.35;100.00;99220.75;7393049;19;20359;-81
2023/07/25 02:05:07;;;;;;;0.52;0.52;;;;;;;19.68;100.00;99210.84;7390901;19;20029;-82
2023/07/25 02:07:33;;;;;;;0.80;0.80;;;;;;;16.19;100.00;99214.00;7390855;19;20044;-82
2023/07/25 02:09:59;;;;;;;0.52;0.52;;;;;;;15.69;100.00;99223.00;7391410;19;20015;-82
2023/07/25 02:12:26;;;;;;;0.82;0.65;;;;;;;14.80;100.00;99220.16;7391518;19;20031;-82
2023/07/25 02:14:52;;;;;;;0.70;0.30;;;;;;;15.18;100.00;99218.34;7390850;19;20029;-82
2023/07/25 02:17:19;;;;;;;0.50;0.50;;;;;;;15.01;100.00;99217.69;7389820;19;20021;-82
2023/07/25 02:19:45;;;;;;;1.60;0.88;;;;;;;14.55;100.00;99217.78;7391974;19;20120;-82
2023/07/25 02:22:13;;;;;;;3.33;0.63;;;;;;;15.44;100.00;99218.63;7389440;19;20011;-82
2023/07/25 03:59:28;;;;;;;2.78;1.02;;;;;;;15.60;100.00;99211.34;7390757;19;20028;-48
2023/07/25 04:01:54;;;;;;;0.17;0.17;;;;;;;15.61;100.00;99221.31;7391600;19;20013;-49
2023/07/25 04:04:21;;;;;;;0.30;0.30;;;;;;;16.81;100.00;99214.72;7398005;19;20382;-48
2023/07/25 04:06:47;;;;;;;0.77;0.40;;;;;;;16.66;100.00;99211.59;7399817;19;20405;-48
2023/07/25 04:09:13;;;;;;;0.32;0.32;;;;;;;16.45;100.00;99214.19;7399835;19;20074;-48
2023/07/25 04:11:39;;;;;;;0.82;0.80;;;;;;;16.71;100.00;99221.25;7399341;19;20037;-49
2023/07/25 04:14:06;;;;;;;9.63;0.85;;;;;;;15.82;100.00;99211.13;7397428;19;20027;-49
2023/07/25 04:16:32;;;;;;;1.75;0.57;;;;;;;16.17;100.00;99218.63;7401065;19;20454;-49
2023/07/25 04:18:59;;;;;;;1.27;1.05;;;;;;;15.77;100.00;99217.53;7399683;19;20011;-49
2023/07/25 04:21:25;;;;;;;0.45;0.40;;;;;;;17.66;100.00;99215.63;7399240;19;20007;-49
2023/07/25 04:26:37;;;;;;;0.47;0.43;;;;;;;14.20;100.00;99215.63;7400449;19;20014;-57
2023/07/25 04:29:03;;;;;;;0.50;0.50;;;;;;;15.02;100.00;99222.03;7399291;19;20023;-57
2023/07/25 04:31:29;;;;;;;0.40;0.20;;;;;;;15.54;100.00;99216.25;7396382;19;20007;-57
2023/07/25 04:33:55;;;;;;;1.15;0.70;;;;;;;15.10;100.00;99225.78;7396706;19;20011;-57
2023/07/25 04:36:22;;;;;;;0.20;0.20;;;;;;;15.80;100.00;99227.72;7394750;19;20010;-57
2023/07/25 04:38:48;;;;;;;1.85;0.60;;;;;;;15.07;100.00;99229.66;7394718;19;20010;-58
2023/07/25 04:41:14;;;;;;;0.43;0.43;;;;;;;16.98;100.00;99225.72;7395292;19;20022;-59
2023/07/25 04:43:40;;;;;;;0.50;0.50;;;;;;;15.54;100.00;99221.88;7395060;19;20023;-60
2023/07/25 04:46:06;;;;;;;0.40;0.40;;;;;;;16.75;100.00;99225.28;7397201;19;20026;-59
2023/07/25 04:48:33;;;;;;;0.45;0.45;;;;;;;17.13;100.00;99223.19;7396844;19;20418;-61
2023/07/25 04:50:59;;;;;;;0.63;0.63;;;;;;;18.29;100.00;99220.28;7398010;19;20022;-60
2023/07/25 04:53:25;;;;;;;0.38;0.38;;;;;;;17.02;100.00;99226.19;7401265;19;20011;-62
2023/07/25 04:55:51;;;;;;;0.45;0.30;;;;;;;16.57;100.00;99231.66;7398724;19;20018;-62
2023/07/25 04:58:17;;;;;;;3.30;0.85;;;;;;;16.73;100.00;99227.13;7396922;19;20010;-62
2023/07/25 05:00:43;;;;;;;3.85;1.50;;;;;;;16.34;100.00;99224.81;7396391;19;20349;-62
2023/07/25 05:03:10;;;;;;;1.55;0.85;;;;;;;15.77;100.00;99228.78;7398700;19;20013;-62
2023/07/25 05:05:36;;;;;;;0.47;0.47;;;;;;;15.86;100.00;99231.25;7399934;19;20002;-62
2023/07/25 05:08:02;;;;;;;2.25;0.88;;;;;;;16.01;100.00;99231.56;7397855;19;20626;-59
2023/07/25 05:10:28;;;;;;;0.65;0.60;;;;;;;14.61;100.00;99233.28;7398264;19;20018;-62
2023/07/25 05:12:54;;;;;;;2.42;1.73;;;;;;;14.43;100.00;99239.47;7398029;19;20007;-62
2023/07/25 05:15:21;;;;;;;1.55;0.88;;;;;;;16.89;100.00;99235.28;7398282;19;20011;-62
2023/07/25 05:17:47;;;;;;;0.75;0.75;;;;;;;17.30;100.00;99240.56;7397952;19;20010;-61
2023/07/25 05:20:13;;;;;;;0.93;0.90;;;;;;;17.43;100.00;99232.88;7398022;19;20014;-58
2023/07/25 05:22:46;;;;;;;0.95;0.68;;;;;;;17.06;100.00;99240.69;7398200;19;20426;-59
2023/07/25 05:25:12;;;;;;;2.05;1.23;;;;;;;17.42;100.00;99241.88;7396551;19;20467;-59
2023/07/25 05:27:38;;;;;;;0.60;0.55;;;;;;;17.84;100.00;99240.91;7397487;19;20018;-62
2023/07/25 05:30:05;;;;;;;1.45;0.50;;;;;;;18.66;100.00;99243.38;7397547;19;20010;-59
2023/07/25 05:32:31;;;;;;;2.47;0.40;;;;;;;20.38;100.00;99241.84;7398189;19;20011;-59
2023/07/25 05:34:57;;;;;;;0.50;0.45;;;;;;;16.85;100.00;99248.16;7398046;19;20014;-58
2023/07/25 05:37:33;;;;;;;6.70;0.93;;;;;;;16.95;100.00;99243.66;7396661;19;20014;-59
2023/07/25 05:39:59;;;;;;;2.67;0.43;;;;;;;18.19;100.00;99251.75;7400628;19;20014;-58
2023/07/25 05:42:25;;;;;;;0.20;0.20;;;;;;;18.08;100.00;99246.31;7397287;19;20017;-58
2023/07/25 05:44:51;;;;;;;1.17;0.43;;;;;;;18.33;100.00;99237.63;7396905;19;20077;-58
2023/07/25 05:47:17;;;;;;;1.05;0.60;;;;;;;17.52;100.00;99248.63;7396668;19;20497;-59
2023/07/25 05:49:44;;;;;;;1.75;0.30;;;;;;;17.37;100.00;99251.16;7397164;19;20025;-58
2023/07/25 05:52:10;;;;;;;0.57;0.50;;;;;;;17.80;100.00;99254.53;7401073;19;20013;-58
2023/07/25 05:54:36;;;;;;;0.68;0.32;;;;;;;19.62;100.00;99246.97;7400742;19;20060;-58
2023/07/25 05:57:03;;;;;;;0.32;0.32;;;;;;;18.90;100.00;99239.50;7396412;19;20019;-58
2023/07/25 05:59:29;;;;;;;1.15;0.55;;;;;;;20.83;100.00;99242.06;7394854;19;20014;-58
2023/07/25 06:01:56;;;;;;;2.50;0.50;;;;;;;28.83;72.48;99221.66;7396020;19;20015;-58
2023/07/25 06:04:22;;;;;;;2.08;1.05;;;;;;;27.71;74.30;99232.72;7394342;19;20026;-58
2023/07/25 06:06:48;;;;;;;0.77;0.45;;;;;;;22.26;92.89;99240.63;7395753;19;20066;-58
2023/07/25 06:09:15;;;;;;;2.50;1.52;;;;;;;20.62;100.00;99244.22;7395886;19;20010;-58
2023/07/25 06:11:41;;;;;;;0.60;0.50;;;;;;;20.24;100.00;99238.41;7395890;19;20014;-58
2023/07/25 06:14:07;;;;;;;5.68;1.15;;;;;;;24.08;98.76;99224.75;7394521;19;20014;-58
2023/07/25 06:16:34;;;;;;;0.95;0.50;;;;;;;23.58;91.34;99226.16;7396595;19;20027;-58
2023/07/25 06:19:00;;;;;;;2.85;0.75;;;;;;;21.16;100.00;99234.59;7394390;19;20014;-58
2023/07/25 06:21:26;;;;;;;2.25;1.35;;;;;;;23.21;98.22;99230.75;7396949;19;20014;-58
2023/07/25 06:23:52;;;;;;;3.95;1.02;;;;;;;18.89;100.00;99232.31;7396163;19;20010;-58
2023/07/25 06:26:18;;;;;;;0.70;0.50;;;;;;;17.57;100.00;99247.03;7391043;19;20011;-58
2023/07/25 06:28:44;;;;;;;1.17;0.88;;;;;;;18.67;100.00;99241.28;7395705;19;20070;-58
2023/07/25 06:31:10;;;;;;;0.77;0.68;;;;;;;20.13;100.00;99232.28;7396130;19;20347;-58
2023/07/25 06:33:37;;;;;;;0.10;0.10;;;;;;;21.17;100.00;99241.03;7394266;19;20015;-58
2023/07/25 06:36:03;;;;;;;0.30;0.30;;;;;;;20.56;100.00;99240.81;7395388;19;20522;-58
2023/07/25 06:38:30;;;;;;;1.95;0.73;;;;;;;20.32;100.00;99244.09;7393210;19;20014;-58
2023/07/25 06:40:56;;;;;;;0.30;0.30;;;;;;;20.58;100.00;99238.19;7395914;19;20007;-58
2023/07/25 06:43:23;;;;;;;0.57;0.20;;;;;;;23.62;100.00;99235.03;7395210;19;20018;-58
2023/07/25 06:45:51;;;;;;;1.73;0.60;;;;;;;24.18;83.54;99232.63;7391754;19;20007;-58
2023/07/25 06:48:17;;;;;;;1.00;0.20;;;;;;;18.34;100.00;99245.56;7394888;19;20014;-58
2023/07/25 06:50:44;;;;;;;1.58;0.80;;;;;;;15.55;100.00;99245.88;7393669;19;20014;-58
2023/07/25 06:53:11;;;;;;;1.05;0.40;;;;;;;15.02;100.00;99245.25;7395860;19;20028;-58
2023/07/25 06:55:38;;;;;;;0.20;0.20;;;;;;;14.85;100.00;99247.41;7396095;19;20014;-58
2023/07/25 06:58:04;;;;;;;0.25;0.25;;;;;;;14.77;100.00;99248.47;7391888;19;20336;-58
2023/07/25 07:00:30;;;;;;;1.42;0.55;;;;;;;20.49;100.00;99240.78;7392379;19;20024;-58
2023/07/25 07:02:56;;;;;;;0.28;0.10;;;;;;;20.83;100.00;99235.63;7392430;19;20011;-58
2023/07/25 07:05:23;;;;;;;4.82;0.40;;;;;;;20.61;100.00;99239.91;7392197;19;20007;-58
2023/07/25 07:07:49;;;;;;;0.57;0.30;;;;;;;19.07;100.00;99237.03;7393589;19;20366;-58
2023/07/25 07:10:15;;;;;;;0.45;0.10;;;;;;;17.47;100.00;99243.84;7393215;19;20029;-58
2023/07/25 07:12:46;;;;;;;0.20;0.20;;;;;;;15.78;100.00;99244.34;7394586;19;20447;-58
2023/07/25 07:15:14;;;;;;;0.10;0.10;;;;;;;20.81;100.00;99241.09;7392171;19;20019;-58
2023/07/25 07:17:43;;;;;;;0.13;0.13;;;;;;;22.46;100.00;99237.53;7394021;19;20080;-58
2023/07/25 07:20:10;;;;;;;0.82;0.30;;;;;;;21.05;100.00;99246.31;7391808;19;20010;-59
2023/07/25 07:22:36;;;;;;;2.72;0.28;;;;;;;20.76;100.00;99259.75;7392554;19;20015;-58
2023/07/25 07:25:03;;;;;;;9.43;0.43;;;;;;;19.18;100.00;99236.78;7393191;19;20011;-59
2023/07/25 07:27:29;;;;;;;0.15;0.13;;;;;;;20.37;100.00;99240.34;7391618;19;20082;-59
2023/07/25 07:29:55;;;;;;;0.20;0.10;;;;;;;21.20;100.00;99239.91;7391208;19;20019;-59
2023/07/25 07:32:22;;;;;;;5.57;0.20;;;;;;;20.98;100.00;99247.00;7396406;19;20405;-59
2023/07/25 07:34:48;;;;;;;0.10;0.10;;;;;;;20.85;100.00;99247.91;7393817;19;20060;-59
2023/07/25 07:37:14;;;;;;;0.10;0.05;;;;;;;20.33;100.00;99246.38;7397538;19;20025;-59
2023/07/25 07:39:41;;;;;;;0.20;0.20;;;;;;;22.51;100.00;99250.00;7400556;19;20015;-60
2023/07/25 07:42:07;;;;;;;0.52;0.22;;;;;;;21.82;100.00;99254.28;7401561;19;20485;-58
2023/07/25 07:44:33;;;;;;;0.50;0.13;;;;;;;22.47;100.00;99247.56;7399259;19;20010;-57
2023/07/25 07:46:59;;;;;;;0.95;0.47;;;;;;;27.46;94.13;99240.97;7397961;19;20022;-57
2023/07/25 07:49:25;;;;;;;0.45;0.45;;;;;;;22.07;100.00;99252.38;7399419;19;20039;-60
2023/07/25 07:51:51;;;;;;;0.85;0.45;;;;;;;22.01;100.00;99260.34;7404041;19;20010;-60
2023/07/25 07:54:18;;;;;;;0.52;0.10;;;;;;;21.92;100.00;99257.34;7403060;19;20689;-60
2023/07/25 07:56:44;;;;;;;0.50;0.20;;;;;;;20.81;100.00;99256.00;7405091;19;20003;-57
2023/07/25 07:59:10;;;;;;;0.20;0.17;;;;;;;20.55;100.00;99261.19;7397706;19;20404;-58
2023/07/25 08:01:36;;;;;;;2.03;0.20;;;;;;;22.65;100.00;99264.75;7402264;19;20018;-58
2023/07/25 08:04:02;;;;;;;0.10;0.10;;;;;;;23.05;100.00;99271.94;7399461;19;20479;-58
2023/07/25 08:06:29;;;;;;;0.63;0.10;;;;;;;23.64;100.00;99257.94;7397020;19;20028;-59
2023/07/25 08:08:55;;;;;;;1.10;0.45;;;;;;;23.17;100.00;99267.31;7399436;19;20399;-59
2023/07/25 08:11:21;;;;;;;0.10;0.10;;;;;;;27.72;91.12;99266.44;7401803;19;20010;-59
2023/07/25 08:13:47;;;;;;;0.63;0.20;;;;;;;21.16;100.00;99279.16;7398180;19;20525;-58
2023/07/25 08:16:13;;;;;;;0.35;0.15;;;;;;;19.04;100.00;99272.00;7398529;19;20066;-59
2023/07/25 08:18:39;;;;;;;0.40;0.40;;;;;;;17.97;100.00;99280.38;7399200;19;20014;-59
2023/07/25 08:21:05;;;;;;;0.52;0.20;;;;;;;17.54;100.00;99277.03;7402111;19;20022;-61
2023/07/25 08:23:31;;;;;;;0.30;0.30;;;;;;;17.38;100.00;99286.47;7399228;19;20030;-59
2023/07/25 08:25:57;;;;;;;0.20;0.20;;;;;;;17.37;100.00;99285.72;7400386;19;20022;-59
2023/07/25 08:28:24;;;;;;;0.20;0.10;;;;;;;17.38;100.00;99275.22;7398618;19;20400;-60
2023/07/25 08:31:05;;;;;;;0.30;0.30;;;;;;;20.79;100.00;99272.78;7400614;19;20018;-61
2023/07/25 08:33:37;;;;;;;6.30;0.75;;;;;;;21.32;100.00;99283.53;7397799;19;20498;-61
2023/07/25 08:36:04;;;;;;;0.32;0.20;;;;;;;21.68;100.00;99273.56;7397780;19;20038;-59
2023/07/25 08:38:30;;;;;;;0.20;0.15;;;;;;;24.57;100.00;99268.63;7398303;19;20013;-59
2023/07/25 08:41:09;;;;;;;1.25;0.10;;;;;;;24.29;100.00;99272.72;7399770;19;20016;-60
2023/07/25 08:43:40;;;;;;;0.20;0.10;;;;;;;19.90;100.00;99271.72;7397989;19;20007;-61
2023/07/25 08:46:10;;;;;;;0.40;0.30;;;;;;;18.95;100.00;99269.63;7396286;19;20057;-61
2023/07/25 08:48:41;;;;;;;0.45;0.10;;;;;;;19.77;100.00;99279.50;7397603;19;20015;-61
2023/07/25 08:51:16;;;;;;;1.13;0.50;;;;;;;19.02;100.00;99277.44;7398079;19;20038;-61
2023/07/25 08:54:01;;;;;;;1.85;0.10;;;;;;;18.46;100.00;99268.66;7400719;19;20021;-61
2023/07/25 08:56:28;;;;;;;0.13;0.13;;;;;;;18.46;100.00;99269.44;7401385;19;20091;-61
2023/07/25 08:58:55;;;;;;;0.10;0.05;;;;;;;17.74;100.00;99278.47;7397240;19;20425;-61
2023/07/25 09:01:21;;;;;;;0.45;0.22;;;;;;;17.37;100.00;99284.94;7399600;19;20392;-61
2023/07/25 09:03:48;;;;;;;0.15;0.15;;;;;;;17.36;100.00;99289.84;7397880;19;20015;-62
2023/07/25 09:06:15;;;;;;;0.10;0.10;;;;;;;18.48;100.00;99285.78;7395915;19;20031;-61
2023/07/25 09:08:41;;;;;;;0.15;0.10;;;;;;;18.03;100.00;99285.88;7398352;19;20003;-61
2023/07/25 09:11:09;;;;;;;0.10;0.10;;;;;;;17.99;100.00;99282.63;7398801;19;20374;-61
2023/07/25 09:13:37;;;;;;;0.40;0.17;;;;;;;18.21;100.00;99287.09;7397279;19;20010;-61
2023/07/25 09:16:04;;;;;;;0.10;0.10;;;;;;;18.52;100.00;99286.22;7396654;19;20011;-61
2023/07/25 09:18:30;;;;;;;0.30;0.10;;;;;;;18.20;100.00;99286.31;7397406;19;20022;-61
2023/07/25 09:20:57;;;;;;;0.57;0.30;;;;;;;18.42;100.00;99287.94;7398818;19;20016;-61
2023/07/25 09:23:23;;;;;;;0.85;0.38;;;;;;;19.01;100.00;99289.28;7397126;19;20023;-61
2023/07/25 09:25:50;;;;;;;0.73;0.25;;;;;;;20.50;100.00;99288.31;7395945;19;20015;-62
2023/07/25 09:28:17;;;;;;;0.10;0.10;;;;;;;19.52;100.00;99290.41;7394917;19;20006;-61
2023/07/25 09:30:50;;;;;;;0.57;0.32;;;;;;;19.08;100.00;99288.63;7397209;19;20021;-62
2023/07/25 09:33:27;;;;;;;0.80;0.30;;;;;;;18.86;100.00;99287.78;7396803;19;20010;-61
2023/07/25 09:35:53;;;;;;;0.63;0.20;;;;;;;19.71;100.00;99281.72;7396554;19;20025;-61
2023/07/25 09:38:20;;;;;;;0.10;0.10;;;;;;;22.39;100.00;99283.72;7396343;19;20325;-60
2023/07/25 09:40:47;;;;;;;0.10;0.10;;;;;;;23.17;100.00;99286.47;7398071;19;20027;-61
2023/07/25 09:43:26;;;;;;;0.10;0.08;;;;;;;23.57;100.00;99284.34;7395825;19;20014;-61
2023/07/25 09:45:53;;;;;;;0.35;0.32;;;;;;;23.42;100.00;99278.75;7395140;19;20014;-61
2023/07/25 09:48:20;;;;;;;1.65;0.60;;;;;;;25.51;99.61;99278.44;7397215;19;20026;-61
2023/07/25 09:50:47;;;;;;;1.63;0.60;;;;;;;26.78;84.07;99286.09;7397252;19;20007;-61
2023/07/25 09:53:17;;;;;;;0.43;0.30;;;;;;;26.39;81.62;99278.84;7398312;19;20021;-61
2023/07/25 09:55:44;;;;;;;0.40;0.35;;;;;;;23.46;98.87;99279.09;7398737;19;20360;-61
2023/07/25 09:58:11;;;;;;;0.30;0.10;;;;;;;23.85;97.93;99286.75;7395752;19;20021;-61
2023/07/25 10:00:39;;;;;;;0.65;0.13;;;;;;;23.76;98.38;99290.25;7395103;19;20014;-61
2023/07/25 10:03:09;;;;;;;0.75;0.25;;;;;;;23.77;98.65;99291.75;7395891;19;20396;-62
2023/07/25 10:05:42;;;;;;;0.63;0.20;;;;;;;24.06;97.79;99295.69;7394425;19;20014;-61
2023/07/25 10:08:10;;;;;;;1.38;0.10;;;;;;;24.01;96.53;99288.16;7396472;19;20018;-61
2023/07/25 10:10:36;;;;;;;0.38;0.38;;;;;;;24.19;98.71;99288.22;7396215;19;20006;-60
2023/07/25 10:13:02;;;;;;;0.68;0.38;;;;;;;24.54;95.47;99292.56;7395713;19;20070;-60
2023/07/25 10:15:30;;;;;;;0.82;0.20;;;;;;;24.53;94.71;99279.69;7394741;19;20363;-60
2023/07/25 10:18:04;;;;;;;0.90;0.45;;;;;;;26.31;89.46;99275.38;7395235;19;20022;-61
2023/07/25 10:20:31;;;;;;;0.50;0.40;;;;;;;25.89;88.08;99272.09;7395402;19;20077;-60
2023/07/25 10:23:09;;;;;;;0.10;0.10;;;;;;;25.62;84.53;99271.41;7394483;19;20011;-60
2023/07/25 10:25:35;;;;;;;1.02;0.55;;;;;;;25.64;90.08;99277.28;7395989;19;20082;-61
2023/07/25 10:28:03;;;;;;;0.95;0.40;;;;;;;26.61;85.24;99268.31;7395104;19;20369;-60
2023/07/25 10:30:32;;;;;;;1.05;0.20;;;;;;;29.27;71.99;99266.81;7395185;19;20014;-61
2023/07/25 10:33:00;;;;;;;0.60;0.22;;;;;;;32.15;69.76;99264.31;7393893;19;20048;-61
2023/07/25 10:35:53;;;;;;;0.30;0.30;;;;;;;25.41;82.25;99275.50;7393859;19;20021;-61
2023/07/25 10:38:32;;;;;;;0.28;0.20;;;;;;;27.40;74.40;99266.28;7393908;19;20011;-61
2023/07/25 10:40:58;;;;;;;0.30;0.30;;;;;;;26.00;79.38;99272.28;7396296;19;20015;-61
2023/07/25 10:43:49;;;;;;;0.40;0.40;;;;;;;25.86;80.07;99268.34;7394912;19;20006;-62
2023/07/25 10:46:16;;;;;;;;;;;;;;;25.95;77.84;99269.72;7393847;19;20022;-61
2023/07/25 10:48:50;;;;;;;0.65;0.32;;;;;;;25.24;82.18;99272.72;7393106;19;19906;-61
2023/07/25 10:51:19;;;;;;;0.43;0.22;;;;;;;26.02;76.85;99265.97;7394949;19;20017;-60
2023/07/25 10:54:12;;;;;;;0.85;0.30;;;;;;;25.80;78.43;99269.97;7396764;19;20014;-60
2023/07/25 10:56:39;;;;;;;3.05;0.20;;;;;;;26.12;79.81;99272.47;7396931;19;20235;-60
2023/07/25 10:59:10;;;;;;;0.73;0.30;;;;;;;26.01;82.44;99262.38;7393694;19;20010;-60
2023/07/25 11:01:43;;;;;;;0.10;0.10;;;;;;;26.97;73.45;99276.75;7392878;19;20352;-61
2023/07/25 11:04:29;;;;;;;0.35;0.20;;;;;;;25.86;79.33;99273.31;7392358;19;20015;-61
2023/07/25 11:06:57;;;;;;;0.10;0.00;;;;;;;26.08;79.98;99272.16;7393372;19;20011;-61
2023/07/25 11:09:25;;;;;;;0.80;0.47;;;;;;;26.16;79.68;99275.66;7392143;19;20028;-61
2023/07/25 11:11:53;;;;;;;1.77;0.40;;;;;;;25.14;81.65;99274.00;7397603;19;20070;-60
2023/07/25 11:14:20;;;;;;;0.17;0.17;;;;;;;25.10;81.64;99274.41;7395574;19;20034;-61
2023/07/25 11:16:49;;;;;;;1.50;0.30;;;;;;;24.80;87.36;99280.50;7398313;19;20017;-61
2023/07/25 11:19:15;;;;;;;0.80;0.15;;;;;;;24.56;90.26;99284.94;7397999;19;20459;-61
2023/07/25 11:21:45;;;;;;;0.75;0.20;;;;;;;24.58;88.71;99281.53;7400563;19;20463;-61
2023/07/25 11:24:12;;;;;;;1.40;0.38;;;;;;;25.16;88.82;99286.31;7398206;19;20018;-62
2023/07/25 11:26:38;;;;;;;0.22;0.10;;;;;;;28.74;75.43;99283.44;7400928;19;20059;-61
2023/07/25 11:29:07;;;;;;;1.45;0.30;;;;;;;35.63;58.50;99280.25;7400459;19;20018;-61
2023/07/25 11:31:36;;;;;;;2.42;0.30;;;;;;;34.67;46.41;99285.00;7399984;19;20017;-62
2023/07/25 11:34:09;;;;;;;0.70;0.20;;;;;;;30.48;60.29;99295.16;7404138;19;20074;-60
2023/07/25 11:49:25;;;;;;;0.10;0.10;;;;;;;22.59;100.00;99330.22;7421933;19;20356;-78
2023/07/25 11:51:52;;;;;;;3.33;0.20;;;;;;;23.48;100.00;99335.34;7424953;19;20014;-81
2023/07/25 11:54:19;;;;;;;0.75;0.30;;;;;;;23.54;100.00;99330.97;7425623;19;20025;-86
2023/07/25 11:56:45;;;;;;;0.77;0.10;;;;;;;23.30;100.00;99328.81;7425788;19;20037;-83
2023/07/25 11:59:12;;;;;;;0.10;0.10;;;;;;;23.29;100.00;99333.00;7427505;19;20033;-83
2023/07/25 12:01:39;;;;;;;0.50;0.10;;;;;;;23.41;100.00;99325.56;7427509;19;20022;-83
2023/07/25 12:04:14;;;;;;;1.58;0.28;;;;;;;23.51;100.00;99337.06;7424440;19;20558;-82
2023/07/25 12:06:40;;;;;;;0.35;0.10;;;;;;;24.04;100.00;99329.66;7426676;19;20011;-81
2023/07/25 12:09:06;;;;;;;0.10;0.10;;;;;;;24.30;100.00;99321.88;7425897;19;20350;-82
2023/07/25 12:11:43;;;;;;;0.10;0.10;;;;;;;24.29;99.93;99329.66;7426820;19;20499;-82
2023/07/25 12:14:12;;;;;;;0.20;0.20;;;;;;;24.30;96.80;99321.88;7425993;19;20485;-82
2023/07/25 12:16:43;;;;;;;0.10;0.08;;;;;;;24.21;97.44;99313.97;7426583;19;20057;-82
2023/07/25 12:19:14;;;;;;;0.40;0.10;;;;;;;24.17;99.25;99322.91;7429796;19;20026;-82
2023/07/25 12:21:43;;;;;;;2.65;0.28;;;;;;;24.16;98.42;99320.66;7424696;19;20342;-82
2023/07/25 12:24:12;;;;;;;0.20;0.10;;;;;;;24.06;95.54;99327.00;7426278;19;20010;-83
2023/07/25 12:26:49;;;;;;;1.45;0.00;;;;;;;24.17;97.60;99333.56;7426874;19;20022;-82
2023/07/25 12:29:16;;;;;;;0.10;0.10;;;;;;;24.24;96.34;99332.72;7425910;19;20014;-82
2023/07/25 12:31:43;;;;;;;0.15;0.10;;;;;;;24.14;96.01;99337.56;7424522;19;20022;-83
2023/07/25 12:34:09;;;;;;;0.80;0.20;;;;;;;24.39;95.55;99332.56;7424063;19;20023;-82
2023/07/25 12:36:35;;;;;;;0.10;0.10;;;;;;;28.72;81.84;99320.59;7424081;19;20042;-82
2023/07/25 12:39:02;;;;;;;2.97;0.40;;;;;;;36.72;48.38;99316.16;7430319;19;20040;-83
2023/07/25 12:41:28;;;;;;;0.55;0.10;;;;;;;38.35;42.42;99317.66;7425459;19;20492;-84
2023/07/25 12:43:54;;;;;;;0.20;0.20;;;;;;;37.64;40.61;99320.66;7426680;19;20014;-82
2023/07/25 12:46:20;;;;;;;0.20;0.10;;;;;;;39.40;36.28;99318.22;7426444;19;20018;-83
2023/07/25 12:48:46;;;;;;;0.10;0.00;;;;;;;39.64;35.22;99307.13;7423951;19;20010;-83
2023/07/25 12:51:12;;;;;;;0.43;0.22;;;;;;;40.31;34.14;99314.38;7421257;19;20045;-83
2023/07/25 12:53:39;;;;;;;0.10;0.10;;;;;;;41.22;32.56;99314.59;7422458;19;20361;-83
2023/07/25 12:56:05;;;;;;;3.58;0.20;;;;;;;41.10;33.09;99311.47;7422396;19;20342;-83
2023/07/25 12:58:31;;;;;;;0.55;0.13;;;;;;;41.93;31.44;99318.59;7423231;19;20021;-83
2023/07/25 13:00:57;;;;;;;0.20;0.10;;;;;;;42.41;30.45;99318.44;7393414;19;20018;-84
2023/07/25 13:03:25;;;;;;;0.38;0.20;;;;;;;41.71;30.10;99303.66;7393932;19;20041;-84
2023/07/25 13:05:52;;;;;;;0.15;0.10;;;;;;;31.52;39.89;99326.41;7393825;19;20483;-81
2023/07/25 13:08:19;;;;;;;0.10;0.10;;;;;;;38.24;36.41;99315.88;7395176;19;20014;-81
2023/07/25 13:10:47;;;;;;;0.30;0.20;;;;;;;41.70;32.24;99308.00;7392824;19;20010;-81
2023/07/25 13:13:14;;;;;;;0.30;0.10;;;;;;;42.01;31.46;99307.72;7392283;19;20028;-81
2023/07/25 13:15:43;;;;;;;0.10;0.00;;;;;;;42.18;30.74;99314.50;7392775;19;20434;-81
2023/07/25 13:18:09;;;;;;;0.63;0.10;;;;;;;41.59;30.91;99315.88;7394589;19;20014;-81
2023/07/25 13:20:36;;;;;;;2.15;0.50;;;;;;;41.46;31.31;99312.06;7395585;19;20006;-84
2023/07/25 13:23:02;;;;;;;0.30;0.13;;;;;;;42.65;29.70;99306.97;7395924;19;20023;-82
2023/07/25 13:25:29;;;;;;;0.25;0.15;;;;;;;43.51;28.36;99309.91;7395691;19;20019;-84
2023/07/25 13:27:55;;;;;;;0.93;0.30;;;;;;;42.22;28.67;99309.44;7392523;19;20082;-82
2023/07/25 13:30:21;;;;;;;0.80;0.00;;;;;;;42.32;28.68;99311.00;7396019;19;20045;-82
2023/07/25 13:32:47;;;;;;;1.88;0.57;;;;;;;42.53;28.00;99306.88;7391377;19;20014;-81
2023/07/25 13:35:13;;;;;;;3.35;0.32;;;;;;;43.37;28.05;99313.50;7392822;19;20014;-81
2023/07/25 13:37:39;;;;;;;0.32;0.10;;;;;;;34.21;34.26;99322.03;7393652;19;20015;-81
2023/07/25 13:40:06;;;;;;;0.35;0.35;;;;;;;28.20;49.24;99337.78;7394307;19;20015;-81
2023/07/25 13:42:32;;;;;;;0.20;0.20;;;;;;;27.97;54.70;99334.75;7398117;19;20018;-82
2023/07/25 13:44:58;;;;;;;5.22;0.73;;;;;;;26.71;61.74;99329.81;7397875;19;20496;-82
2023/07/25 13:47:25;;;;;;;6.97;1.27;;;;;;;26.09;67.36;99327.91;7391930;19;20010;-82
2023/07/25 13:49:51;;;;;;;0.73;0.20;;;;;;;25.76;68.92;99329.56;7393713;19;20022;-82
2023/07/25 13:52:17;;;;;;;1.23;0.20;;;;;;;25.58;72.22;99334.59;7394461;19;20007;-82